createdAt,value
2018-09-21T00:00:21.484Z,71.95
2018-09-21T00:02:48.372Z,71.99
2018-09-21T00:05:15.276Z,72.26
2018-09-21T00:07:42.165Z,72.40
2018-09-21T00:10:09.067Z,73.51
2018-09-21T00:12:35.968Z,72.83
2018-09-21T00:15:02.864Z,73.75
2018-09-21T00:17:29.766Z,73.83
2018-09-21T00:19:56.670Z,72.94
2018-09-21T00:22:23.581Z,73.29
2018-09-21T00:24:50.485Z,73.36
2018-09-21T00:27:17.407Z,73.92
2018-09-21T00:29:44.316Z,73.57
2018-09-21T00:32:11.244Z,73.40
2018-09-21T00:34:38.204Z,73.32
2018-09-21T00:37:05.280Z,73.41
2018-09-21T00:39:32.186Z,74.47
2018-09-21T00:41:59.118Z,74.41
2018-09-21T00:44:26.035Z,74.55
2018-09-21T00:46:52.996Z,74.43
2018-09-21T00:49:19.954Z,74.63
2018-09-21T00:51:46.885Z,74.50
2018-09-21T00:54:13.813Z,74.50
2018-09-21T00:56:40.799Z,74.38
2018-09-21T00:59:07.742Z,73.71
2018-09-21T01:01:34.682Z,73.41
2018-09-21T01:04:01.600Z,74.03
2018-09-21T01:06:28.545Z,73.62
2018-09-21T01:08:55.461Z,73.58
2018-09-21T01:11:22.393Z,73.78
2018-09-21T01:13:49.312Z,74.20
2018-09-21T01:16:16.276Z,73.77
2018-09-21T01:18:43.186Z,73.33
2018-09-21T01:21:10.124Z,72.58
2018-09-21T01:23:37.027Z,71.49
2018-09-21T01:26:04.049Z,71.35
2018-09-21T01:28:31.004Z,70.48
2018-09-21T01:30:57.944Z,69.37
2018-09-21T01:33:24.861Z,69.67
2018-09-21T01:35:51.797Z,68.61
2018-09-21T01:38:18.697Z,68.31
2018-09-21T01:40:45.609Z,68.24
2018-09-21T01:43:12.591Z,68.10
2018-09-21T01:45:39.495Z,67.45
2018-09-21T01:48:06.414Z,67.53
2018-09-21T01:50:33.379Z,67.48
2018-09-21T01:53:00.224Z,66.75
2018-09-21T01:55:27.116Z,66.64
2018-09-21T01:57:54.021Z,66.55
2018-09-21T02:00:20.932Z,67.11
2018-09-21T02:02:47.913Z,66.61
2018-09-21T02:05:14.803Z,67.17
2018-09-21T02:07:41.717Z,66.58
2018-09-21T02:10:08.622Z,66.85
2018-09-21T02:12:35.525Z,67.13
2018-09-21T02:15:02.445Z,65.98
2018-09-21T02:17:29.347Z,66.66
2018-09-21T02:19:56.270Z,66.37
2018-09-21T02:22:23.197Z,65.72
2018-09-21T02:24:50.097Z,66.22
2018-09-21T02:27:17.008Z,66.03
2018-09-21T02:29:43.909Z,65.73
2018-09-21T02:32:10.845Z,66.29
2018-09-21T02:34:37.757Z,65.84
2018-09-21T02:37:04.724Z,66.19
2018-09-21T02:39:31.648Z,66.00
2018-09-21T02:41:58.560Z,66.28
2018-09-21T02:44:25.471Z,65.73
2018-09-21T02:46:52.401Z,66.21
2018-09-21T02:49:19.329Z,66.16
2018-09-21T02:51:46.241Z,65.79
2018-09-21T02:54:13.183Z,66.03
2018-09-21T02:56:40.889Z,66.02
2018-09-21T02:59:07.833Z,65.48
2018-09-21T03:01:34.748Z,65.13
2018-09-21T03:04:01.677Z,65.31
2018-09-21T03:06:28.601Z,64.84
2018-09-21T03:08:55.574Z,64.98
2018-09-21T03:11:22.457Z,64.69
2018-09-21T03:13:50.078Z,64.75
2018-09-21T03:16:17.756Z,65.02
2018-09-21T03:18:45.457Z,65.45
2018-09-21T03:21:13.457Z,65.16
2018-09-21T03:23:41.326Z,64.47
2018-09-21T03:26:08.968Z,64.34
2018-09-21T03:28:37.281Z,64.83
2018-09-21T03:31:05.063Z,65.40
2018-09-21T03:33:32.705Z,64.42
2018-09-21T03:36:00.333Z,65.08
2018-09-21T03:38:28.380Z,64.92
2018-09-21T03:40:56.137Z,65.01
2018-09-21T03:43:24.880Z,64.32
2018-09-21T03:45:52.966Z,64.16
2018-09-21T03:48:20.605Z,64.19
2018-09-21T03:50:48.248Z,64.74
2018-09-21T03:53:15.890Z,63.66
2018-09-21T03:55:43.561Z,64.27
2018-09-21T03:58:11.379Z,64.04
2018-09-21T04:00:39.004Z,62.97
2018-09-21T04:03:06.725Z,62.85
2018-09-21T04:05:34.468Z,62.45
2018-09-21T04:08:02.123Z,63.51
2018-09-21T04:10:29.679Z,63.15
2018-09-21T04:12:58.312Z,62.38
2018-09-21T04:15:25.936Z,63.10
2018-09-21T04:17:53.989Z,62.99
2018-09-21T04:20:21.686Z,62.94
2018-09-21T04:22:54.071Z,63.22
2018-09-21T04:25:21.768Z,62.26
2018-09-21T04:27:49.515Z,62.60
2018-09-21T04:30:17.137Z,62.16
2018-09-21T04:32:44.777Z,61.95
2018-09-21T04:35:11.762Z,62.96
2018-09-21T04:37:38.668Z,62.57
2018-09-21T04:40:05.601Z,62.89
2018-09-21T04:42:32.530Z,61.75
2018-09-21T04:44:59.475Z,62.87
2018-09-21T04:47:26.405Z,62.34
2018-09-21T04:49:53.321Z,62.84
2018-09-21T04:52:20.316Z,62.75
2018-09-21T04:54:47.190Z,62.92
2018-09-21T04:57:14.100Z,63.24
2018-09-21T04:59:40.996Z,62.69
2018-09-21T05:02:07.888Z,63.19
2018-09-21T05:04:34.802Z,63.02
2018-09-21T05:07:01.713Z,63.52
2018-09-21T05:09:28.625Z,62.55
2018-09-21T05:11:55.517Z,63.24
2018-09-21T05:14:22.460Z,63.15
2018-09-21T05:16:49.365Z,62.10
2018-09-21T05:19:16.284Z,62.28
2018-09-21T05:21:43.191Z,63.08
2018-09-21T05:24:10.639Z,62.14
2018-09-21T05:26:37.576Z,62.82
2018-09-21T05:29:04.940Z,62.92
2018-09-21T05:31:31.860Z,63.12
2018-09-21T05:33:58.793Z,63.61
2018-09-21T05:36:25.745Z,63.51
2018-09-21T05:38:52.713Z,63.30
2018-09-21T05:41:19.633Z,62.47
2018-09-21T05:43:46.544Z,62.97
2018-09-21T05:46:13.473Z,63.00
2018-09-21T05:48:40.404Z,62.58
2018-09-21T05:51:07.346Z,62.17
2018-09-21T05:53:34.376Z,62.63
2018-09-21T05:56:01.372Z,62.82
2018-09-21T06:01:38.005Z,63.67
2018-09-21T06:04:04.924Z,63.72
2018-09-21T06:06:31.862Z,63.72
2018-09-21T06:08:58.785Z,63.71
2018-09-21T06:11:25.713Z,62.92
2018-09-21T06:13:52.695Z,62.97
2018-09-21T06:16:19.605Z,63.48
2018-09-21T06:18:46.716Z,63.87
2018-09-21T06:21:13.657Z,62.81
2018-09-21T06:23:40.582Z,63.79
2018-09-21T06:26:07.541Z,63.14
2018-09-21T06:28:34.443Z,64.03
2018-09-21T06:31:01.374Z,63.73
2018-09-21T06:33:28.290Z,64.48
2018-09-21T06:35:55.210Z,63.32
2018-09-21T06:38:22.128Z,63.15
2018-09-21T06:40:49.189Z,63.56
2018-09-21T06:43:16.222Z,63.93
2018-09-21T06:45:43.155Z,64.18
2018-09-21T06:48:10.074Z,63.69
2018-09-21T06:50:37.016Z,64.41
2018-09-21T06:53:03.963Z,63.30
2018-09-21T06:55:31.097Z,64.05
2018-09-21T06:57:58.021Z,63.19
2018-09-21T07:00:24.994Z,63.42
2018-09-21T07:02:51.913Z,63.28
2018-09-21T07:05:18.832Z,62.97
2018-09-21T07:07:46.020Z,62.36
2018-09-21T07:10:13.507Z,61.89
2018-09-21T07:12:41.151Z,62.82
2018-09-21T07:15:08.612Z,62.84
2018-09-21T07:17:35.534Z,62.62
2018-09-21T07:20:02.709Z,62.92
2018-09-21T07:22:29.640Z,62.98
2018-09-21T07:24:56.548Z,62.85
2018-09-21T07:27:23.479Z,62.17
2018-09-21T07:29:50.583Z,62.17
2018-09-21T07:32:17.504Z,61.92
2018-09-21T07:34:44.437Z,61.88
2018-09-21T07:37:11.356Z,60.70
2018-09-21T07:39:38.313Z,60.91
2018-09-21T07:42:05.257Z,59.97
2018-09-21T07:44:32.186Z,60.01
2018-09-21T07:46:59.085Z,60.34
2018-09-21T07:49:25.992Z,59.94
2018-09-21T07:51:52.970Z,58.79
2018-09-21T07:54:19.893Z,58.38
2018-09-21T07:56:46.793Z,58.17
2018-09-21T07:59:13.704Z,58.42
2018-09-21T08:01:40.604Z,57.03
2018-09-21T08:04:07.533Z,55.62
2018-09-21T08:06:34.495Z,55.90
2018-09-21T08:09:01.404Z,55.81
2018-09-21T08:11:28.330Z,56.27
2018-09-21T08:13:55.234Z,55.59
2018-09-21T08:16:22.156Z,55.43
2018-09-21T08:18:49.100Z,54.83
2018-09-21T08:21:16.029Z,54.18
2018-09-21T08:23:42.937Z,54.38
2018-09-21T08:26:09.857Z,53.66
2018-09-21T08:28:36.766Z,52.90
2018-09-21T08:31:03.696Z,52.38
2018-09-21T08:33:30.641Z,52.85
2018-09-21T08:35:57.621Z,53.56
2018-09-21T08:38:24.532Z,52.23
2018-09-21T08:40:51.438Z,52.50
2018-09-21T08:43:18.344Z,51.99
2018-09-21T08:45:45.249Z,52.93
2018-09-21T08:48:12.159Z,51.08
2018-09-21T08:50:39.048Z,52.30
2018-09-21T08:53:06.003Z,51.41
2018-09-21T08:55:32.903Z,51.09
2018-09-21T08:57:59.813Z,51.50
2018-09-21T09:00:26.713Z,50.67
2018-09-21T09:02:53.630Z,50.40
2018-09-21T09:05:22.394Z,49.46
2018-09-21T09:07:49.630Z,50.46
2018-09-21T09:10:16.549Z,51.10
2018-09-21T09:12:43.445Z,50.88
2018-09-21T09:15:10.372Z,50.15
2018-09-21T09:17:37.285Z,49.70
2018-09-21T09:20:04.188Z,50.05
2018-09-21T09:22:31.097Z,50.10
2018-09-21T09:24:58.043Z,50.55
2018-09-21T09:27:24.921Z,50.14
2018-09-21T09:29:51.876Z,49.94
2018-09-21T09:32:18.774Z,49.97
2018-09-21T09:34:45.688Z,50.64
2018-09-21T09:37:12.596Z,54.62
2018-09-21T09:39:39.501Z,60.39
2018-09-21T09:42:06.437Z,64.98
2018-09-21T09:44:33.341Z,67.20
2018-09-21T09:47:00.288Z,71.24
2018-09-21T09:49:27.190Z,74.12
2018-09-21T09:51:54.112Z,74.63
2018-09-21T09:54:21.069Z,76.33
2018-09-21T09:56:47.988Z,77.66
2018-09-21T09:59:14.930Z,78.51
2018-09-21T10:01:41.835Z,78.66
2018-09-21T10:04:08.817Z,78.35
2018-09-21T10:06:35.741Z,78.65
2018-09-21T10:09:02.941Z,80.16
2018-09-21T10:11:29.937Z,79.77
2018-09-21T10:13:57.069Z,79.89
2018-09-21T10:16:24.119Z,80.33
2018-09-21T10:18:57.815Z,81.04
2018-09-21T10:21:24.745Z,80.53
2018-09-21T10:23:51.672Z,81.64
2018-09-21T10:26:18.604Z,82.08
2018-09-21T10:28:45.721Z,82.13
2018-09-21T10:31:12.549Z,82.45
2018-09-21T10:33:39.914Z,82.20
2018-09-21T10:36:06.671Z,82.60
2018-09-21T10:38:33.595Z,81.90
2018-09-21T10:41:00.548Z,83.97
2018-09-21T10:43:27.468Z,86.11
2018-09-21T10:45:54.376Z,85.76
2018-09-21T10:48:21.301Z,86.74
2018-09-21T10:50:48.192Z,84.93
2018-09-21T10:53:15.100Z,84.85
2018-09-21T10:55:42.000Z,85.55
2018-09-21T10:58:08.912Z,85.75
2018-09-21T11:00:35.903Z,86.69
2018-09-21T11:03:03.061Z,87.63
2018-09-21T11:05:30.029Z,87.94
2018-09-21T11:07:56.943Z,89.38
2018-09-21T11:10:23.845Z,88.31
2018-09-21T11:12:50.749Z,89.18
2018-09-21T11:15:17.643Z,89.19
2018-09-21T11:17:44.557Z,89.18
2018-09-21T11:20:11.465Z,90.39
2018-09-21T11:22:38.381Z,89.64
2018-09-21T11:25:05.345Z,89.73
2018-09-21T11:27:32.252Z,89.88
2018-09-21T11:29:59.158Z,89.96
2018-09-21T11:32:26.064Z,90.20
2018-09-21T11:34:52.989Z,90.11
2018-09-21T11:37:19.897Z,90.44
2018-09-21T11:39:46.820Z,90.43
2018-09-21T11:42:13.728Z,90.70
2018-09-21T11:44:40.636Z,90.64
2018-09-21T11:47:07.621Z,90.63
2018-09-21T11:49:34.474Z,90.84
2018-09-21T11:52:01.389Z,90.38
2018-09-21T11:54:28.376Z,90.47
2018-09-21T11:56:55.264Z,90.05
2018-09-21T11:59:22.165Z,88.70
2018-09-21T12:01:49.105Z,85.78
2018-09-21T12:04:16.043Z,85.52
2018-09-21T12:06:42.937Z,85.50
2018-09-21T12:09:09.856Z,84.60
2018-09-21T12:11:36.773Z,85.30
2018-09-21T12:14:03.901Z,86.07
2018-09-21T12:16:30.790Z,85.40
2018-09-21T12:18:57.697Z,85.92
2018-09-21T12:21:24.596Z,85.89
2018-09-21T12:23:51.497Z,85.92
2018-09-21T12:26:18.400Z,85.84
2018-09-21T12:28:45.303Z,85.25
2018-09-21T12:31:12.211Z,85.13
2018-09-21T12:33:39.109Z,85.16
2018-09-21T12:36:07.027Z,85.75
2018-09-21T12:38:33.927Z,86.48
2018-09-21T12:41:00.815Z,85.90
2018-09-21T12:43:27.721Z,84.46
2018-09-21T12:45:54.618Z,85.59
2018-09-21T12:48:21.516Z,85.07
2018-09-21T12:50:48.480Z,84.02
2018-09-21T12:53:15.325Z,84.30
2018-09-21T12:55:42.217Z,83.65
2018-09-21T12:58:09.173Z,82.35
2018-09-21T13:00:41.744Z,83.20
2018-09-21T13:03:08.633Z,83.09
2018-09-21T13:05:35.540Z,81.57
2018-09-21T13:08:02.479Z,82.19
2018-09-21T13:10:29.385Z,80.97
2018-09-21T13:12:56.305Z,80.15
2018-09-21T13:15:23.217Z,80.79
2018-09-21T13:17:50.111Z,79.48
2018-09-21T13:20:17.015Z,79.39
2018-09-21T13:22:43.908Z,78.43
2018-09-21T13:25:10.816Z,76.26
2018-09-21T13:27:37.712Z,73.54
2018-09-21T13:30:04.792Z,75.04
2018-09-21T13:32:31.696Z,72.92
2018-09-21T13:34:58.585Z,72.46
2018-09-21T13:37:25.495Z,72.05
2018-09-21T13:39:52.394Z,72.89
2018-09-21T13:42:19.289Z,70.63
2018-09-21T13:44:46.201Z,69.48
2018-09-21T13:47:13.089Z,69.14
2018-09-21T13:49:40.001Z,67.55
2018-09-21T13:52:06.916Z,69.09
2018-09-21T13:54:33.900Z,66.70
2018-09-21T13:57:00.801Z,68.16
2018-09-21T13:59:27.742Z,66.38
2018-09-21T14:01:54.647Z,66.50
2018-09-21T14:04:21.536Z,66.44
2018-09-21T14:06:48.439Z,66.83
2018-09-21T14:09:15.357Z,66.95
2018-09-21T14:11:42.261Z,67.70
2018-09-21T14:14:09.180Z,68.78
2018-09-21T14:16:36.073Z,67.51
2018-09-21T14:19:04.428Z,68.02
2018-09-21T14:21:31.841Z,67.63
2018-09-21T14:23:58.694Z,67.49
2018-09-21T14:26:25.626Z,66.40
2018-09-21T14:28:53.176Z,66.97
2018-09-21T14:31:20.056Z,67.00
2018-09-21T14:33:46.987Z,67.10
2018-09-21T14:36:13.897Z,63.99
2018-09-21T14:38:40.780Z,63.86
2018-09-21T14:41:07.893Z,63.74
2018-09-21T14:43:34.820Z,64.58
2018-09-21T14:46:01.713Z,65.73
2018-09-21T14:48:28.624Z,66.25
2018-09-21T14:50:55.550Z,68.08
2018-09-21T14:53:22.461Z,72.84
2018-09-21T14:55:49.364Z,73.11
2018-09-21T14:58:16.247Z,74.37
2018-09-21T15:00:43.137Z,75.10
2018-09-21T15:03:10.029Z,74.88
2018-09-21T15:05:36.951Z,74.58
2018-09-21T15:08:03.841Z,75.43
2018-09-21T15:10:30.748Z,75.55
2018-09-21T15:12:57.644Z,76.70
2018-09-21T15:15:24.542Z,77.06
2018-09-21T15:17:51.440Z,76.40
2018-09-21T15:20:18.351Z,76.58
2018-09-21T15:22:45.272Z,75.90
2018-09-21T15:25:12.208Z,75.76
2018-09-21T15:27:39.165Z,77.75
2018-09-21T15:30:06.050Z,78.29
2018-09-21T15:32:32.986Z,79.61
2018-09-21T15:34:59.900Z,79.26
2018-09-21T15:37:26.853Z,78.44
2018-09-21T15:39:53.799Z,78.43
2018-09-21T15:42:20.713Z,78.19
2018-09-21T15:44:47.636Z,77.89
2018-09-21T15:47:14.600Z,77.51
2018-09-21T15:49:41.525Z,77.25
2018-09-21T15:52:08.470Z,76.39
2018-09-21T15:54:35.693Z,75.83
2018-09-21T15:57:02.657Z,75.32
2018-09-21T15:59:29.669Z,75.46
2018-09-21T16:02:03.315Z,74.64
2018-09-21T16:04:30.228Z,73.97
2018-09-21T16:06:57.166Z,74.66
2018-09-21T16:09:24.100Z,74.35
2018-09-21T16:11:51.050Z,73.71
2018-09-21T16:14:17.993Z,73.70
2018-09-21T16:16:45.017Z,73.86
2018-09-21T16:19:11.936Z,73.54
2018-09-21T16:21:38.847Z,73.16
2018-09-21T16:24:05.896Z,73.40
2018-09-21T16:26:32.805Z,73.42
2018-09-21T16:28:59.720Z,73.21
2018-09-21T16:31:26.660Z,73.59
2018-09-21T16:33:53.608Z,73.61
2018-09-21T16:36:20.579Z,72.78
2018-09-21T16:38:47.441Z,72.62
2018-09-21T16:41:14.457Z,72.14
2018-09-21T16:43:41.365Z,71.13
2018-09-21T16:46:08.270Z,69.22
2018-09-21T16:48:35.196Z,66.50
2018-09-21T16:51:02.114Z,66.12
2018-09-21T16:53:29.036Z,66.54
2018-09-21T16:55:55.936Z,66.06
2018-09-21T16:58:22.845Z,66.17
2018-09-21T17:00:49.936Z,67.78
2018-09-21T17:03:17.016Z,69.94
2018-09-21T17:05:43.890Z,73.00
2018-09-21T17:08:10.825Z,73.57
2018-09-21T17:10:37.707Z,72.62
2018-09-21T17:13:04.673Z,70.89
2018-09-21T17:15:31.585Z,71.74
2018-09-21T17:17:58.492Z,70.08
2018-09-21T17:20:25.403Z,69.56
2018-09-21T17:22:52.314Z,69.29
2018-09-21T17:25:19.311Z,68.24
2018-09-21T17:27:46.256Z,67.88
2018-09-21T17:30:13.170Z,68.81
2018-09-21T17:32:40.088Z,68.08
2018-09-21T17:35:07.028Z,67.41
2018-09-21T17:37:34.022Z,65.69
2018-09-21T17:40:00.906Z,67.33
2018-09-21T17:42:27.795Z,66.64
2018-09-21T17:44:54.721Z,65.92
2018-09-21T17:47:21.672Z,65.36
2018-09-21T17:49:48.593Z,65.22
2018-09-21T17:52:15.497Z,66.29
2018-09-21T17:54:42.417Z,66.75
2018-09-21T17:57:09.334Z,66.76
2018-09-21T17:59:36.276Z,65.78
2018-09-21T18:02:03.221Z,65.67
2018-09-21T18:04:30.186Z,64.25
2018-09-21T18:06:57.096Z,62.56
2018-09-21T18:09:24.021Z,59.52
2018-09-21T18:11:50.925Z,59.92
2018-09-21T18:14:17.845Z,61.61
2018-09-21T18:16:44.900Z,61.93
2018-09-21T18:19:11.807Z,61.42
2018-09-21T18:21:38.717Z,62.39
2018-09-21T18:24:05.684Z,63.59
2018-09-21T18:26:33.730Z,62.64
2018-09-21T18:29:00.908Z,63.47
2018-09-21T18:31:27.847Z,63.97
2018-09-21T18:33:55.003Z,63.97
2018-09-21T18:36:21.957Z,65.76
2018-09-21T18:38:48.859Z,74.00
2018-09-21T18:41:15.786Z,77.98
2018-09-21T18:43:42.733Z,79.39
2018-09-21T18:46:09.659Z,79.47
2018-09-21T18:48:36.575Z,78.95
2018-09-21T18:51:03.729Z,80.23
2018-09-21T18:53:30.649Z,79.26
2018-09-21T18:55:57.566Z,78.88
2018-09-21T18:58:24.489Z,78.71
2018-09-21T19:00:51.418Z,79.23
2018-09-21T19:03:18.321Z,80.42
2018-09-21T19:05:45.248Z,84.17
2018-09-21T19:08:12.181Z,85.42
2018-09-21T19:10:39.100Z,85.44
2018-09-21T19:13:06.024Z,86.13
2018-09-21T19:15:33.176Z,87.75
2018-09-21T19:18:00.071Z,87.45
2018-09-21T19:20:26.984Z,87.83
2018-09-21T19:22:53.898Z,87.61
2018-09-21T19:25:20.986Z,86.86
2018-09-21T19:27:47.928Z,87.18
2018-09-21T19:30:14.831Z,87.51
2018-09-21T19:32:41.771Z,88.49
2018-09-21T19:35:08.680Z,89.37
2018-09-21T19:37:35.593Z,88.77
2018-09-21T19:40:03.229Z,87.35
2018-09-21T19:42:30.192Z,89.00
2018-09-21T19:44:57.132Z,88.42
2018-09-21T19:47:23.975Z,87.86
2018-09-21T19:49:50.880Z,89.65
2018-09-21T19:52:17.767Z,89.45
2018-09-21T19:54:44.699Z,89.53
2018-09-21T19:57:11.570Z,89.00
2018-09-21T19:59:38.464Z,89.65
2018-09-21T20:02:05.358Z,90.07
2018-09-21T20:04:32.271Z,90.11
2018-09-21T20:06:59.190Z,89.40
2018-09-21T20:09:26.105Z,89.70
2018-09-21T20:11:53.008Z,89.39
2018-09-21T20:14:19.896Z,88.75
2018-09-21T20:16:46.797Z,88.73
2018-09-21T20:19:13.707Z,89.56
2018-09-21T20:21:40.644Z,88.34
2018-09-21T20:24:07.549Z,88.45
2018-09-21T20:26:34.445Z,87.17
2018-09-21T20:29:01.404Z,87.09
2018-09-21T20:31:34.168Z,86.55
2018-09-21T20:34:01.113Z,85.71
2018-09-21T20:36:28.032Z,86.53
2018-09-21T20:38:54.973Z,88.07
2018-09-21T20:41:21.888Z,88.78
2018-09-21T20:43:48.824Z,89.20
2018-09-21T20:46:15.729Z,89.21
2018-09-21T20:48:42.665Z,90.24
2018-09-21T20:51:09.580Z,89.67
2018-09-21T20:53:36.491Z,91.43
2018-09-21T20:56:03.421Z,91.75
2018-09-21T20:58:30.336Z,91.63
2018-09-21T21:00:57.328Z,90.87
2018-09-21T21:03:24.228Z,90.52
2018-09-21T21:05:51.180Z,91.34
2018-09-21T21:08:18.371Z,91.64
2018-09-21T21:10:45.288Z,91.12
2018-09-21T21:13:12.213Z,91.14
2018-09-21T21:15:39.128Z,90.32
2018-09-21T21:18:06.292Z,90.85
2018-09-21T21:20:33.244Z,89.06
2018-09-21T21:23:00.168Z,88.60
2018-09-21T21:25:27.095Z,88.57
2018-09-21T21:27:54.009Z,89.41
2018-09-21T21:30:20.936Z,89.09
2018-09-21T21:32:47.848Z,90.46
2018-09-21T21:35:14.759Z,89.23
2018-09-21T21:37:41.679Z,88.40
2018-09-21T21:40:08.740Z,89.24
2018-09-21T21:42:35.657Z,88.52
2018-09-21T21:45:02.584Z,88.94
2018-09-21T21:47:29.512Z,88.89
2018-09-21T21:49:56.473Z,89.49
2018-09-21T21:52:23.399Z,88.86
2018-09-21T21:54:50.310Z,89.53
2018-09-21T21:57:17.211Z,88.52
2018-09-21T21:59:44.574Z,89.00
2018-09-21T22:02:18.194Z,88.15
2018-09-21T22:04:45.106Z,88.60
2018-09-21T22:07:12.424Z,88.94
2018-09-21T22:09:39.388Z,88.79
2018-09-21T22:12:11.972Z,89.16
2018-09-21T22:14:38.892Z,87.84
2018-09-21T22:17:06.556Z,88.47
2018-09-21T22:19:33.464Z,87.52
2018-09-21T22:22:00.396Z,88.98
2018-09-21T22:24:27.300Z,88.51
2018-09-21T22:26:54.197Z,86.80
2018-09-21T22:29:21.103Z,88.22
2018-09-21T22:31:48.033Z,88.16
2018-09-21T22:34:14.937Z,87.88
2018-09-21T22:36:41.863Z,88.19
2018-09-21T22:39:08.813Z,88.69
2018-09-21T22:41:35.740Z,88.56
2018-09-21T22:44:02.669Z,88.34
2018-09-21T22:46:29.595Z,88.47
2018-09-21T22:48:56.728Z,88.37
2018-09-21T22:51:23.644Z,89.09
2018-09-21T22:53:50.561Z,88.42
2018-09-21T22:56:17.484Z,88.55
2018-09-21T22:58:44.395Z,88.29
2018-09-21T23:01:11.396Z,87.51
2018-09-21T23:03:38.321Z,87.84
2018-09-21T23:06:05.712Z,88.76
2018-09-21T23:08:32.624Z,88.25
2018-09-21T23:10:59.548Z,88.18
2018-09-21T23:13:26.478Z,88.60
2018-09-21T23:15:53.408Z,87.76
2018-09-21T23:18:20.326Z,89.07
2018-09-21T23:20:47.315Z,87.94
2018-09-21T23:23:14.241Z,88.62
2018-09-21T23:25:41.152Z,87.62
2018-09-21T23:28:08.664Z,88.44
2018-09-21T23:30:35.588Z,87.96
2018-09-21T23:33:02.509Z,88.79
2018-09-21T23:35:29.425Z,88.96
2018-09-21T23:37:56.331Z,88.34
2018-09-21T23:40:23.236Z,87.94
2018-09-21T23:42:50.149Z,89.21
2018-09-21T23:45:17.057Z,89.04
2018-09-21T23:47:44.085Z,89.21
2018-09-21T23:50:10.985Z,89.24
2018-09-21T23:52:37.896Z,89.72
2018-09-21T23:55:04.973Z,89.74
2018-09-21T23:57:31.904Z,89.84
2018-09-21T23:59:58.822Z,89.26
